Terminal Aerodrome Forecast
Issued by NWS

Home | Current Version | Previous Version | Text Only | Print | Product List | Glossary On
Versions: 1 2 3 4 5 6 7 8 9 10 11 12 13 14 15 16 17 18 19 20 21
262
FTUS44 KLZK 231131
TAFHOT
TAF
KHOT 231131Z 2312/2412 17005KT P6SM SKC
      TEMPO 2312/2313 5SM BR FEW005
     FM231500 29006KT P6SM SCT250
     FM231800 26008G18KT P6SM SCT250
     FM240200 32009G20KT P6SM SCT100 SCT250=

USA.gov is the U.S. government's official web portal to all federal, state and local government web resources and services.